createdAt,value
2022-09-02T00:00:08.377Z,13.96
2022-09-02T00:02:35.647Z,13.82
2022-09-02T00:05:05.394Z,13.93
2022-09-02T00:07:36.873Z,13.78
2022-09-02T00:10:10.068Z,13.74
2022-09-02T00:12:37.765Z,13.68
2022-09-02T00:15:08.635Z,13.56
2022-09-02T00:17:35.633Z,13.68
2022-09-02T00:20:04.880Z,13.56
2022-09-02T00:22:31.699Z,13.48
2022-09-02T00:25:01.756Z,13.44
2022-09-02T00:27:31.393Z,13.39
2022-09-02T00:30:04.555Z,13.32
2022-09-02T00:32:33.682Z,13.27
2022-09-02T00:35:03.255Z,13.25
2022-09-02T00:37:32.656Z,13.32
2022-09-02T00:40:02.342Z,13.22
2022-09-02T00:42:31.881Z,13.24
2022-09-02T00:45:05.315Z,13.15
2022-09-02T00:47:35.152Z,13.24
2022-09-02T00:50:16.985Z,13.04
2022-09-02T00:52:51.080Z,13.15
2022-09-02T00:55:19.483Z,13.21
2022-09-02T00:57:51.551Z,13.14
2022-09-02T01:00:25.978Z,13.21
2022-09-02T01:03:08.142Z,13.16
2022-09-02T01:05:43.947Z,13.13
2022-09-02T01:08:14.171Z,13.19
2022-09-02T01:10:44.532Z,13.18
2022-09-02T01:13:20.830Z,13.14
2022-09-02T01:15:55.306Z,13.15
2022-09-02T01:18:29.124Z,13.24
2022-09-02T01:21:00.592Z,13.13
2022-09-02T01:23:32.355Z,13.31
2022-09-02T01:26:02.619Z,13.33
2022-09-02T01:28:29.769Z,13.42
2022-09-02T01:30:56.628Z,13.40
2022-09-02T01:33:27.905Z,13.56
2022-09-02T01:35:57.681Z,13.80
2022-09-02T01:38:27.401Z,13.83
2022-09-02T01:40:58.332Z,14.00
2022-09-02T01:43:28.503Z,14.07
2022-09-02T01:45:57.386Z,14.03
2022-09-02T01:48:27.365Z,13.93
2022-09-02T01:51:09.139Z,14.03
2022-09-02T01:53:45.821Z,13.89
2022-09-02T01:56:13.676Z,13.93
2022-09-02T01:58:48.917Z,13.92
2022-09-02T02:01:19.110Z,13.96
2022-09-02T02:03:56.561Z,13.96
2022-09-02T02:06:24.569Z,13.83
2022-09-02T02:08:57.455Z,13.88
2022-09-02T02:11:26.833Z,13.94
2022-09-02T02:13:57.907Z,13.86
2022-09-02T02:16:31.226Z,13.87
2022-09-02T02:19:08.260Z,13.86
2022-09-02T02:21:37.862Z,13.80
2022-09-02T02:24:05.737Z,13.75
2022-09-02T02:26:36.952Z,13.68
2022-09-02T02:29:23.259Z,13.64
2022-09-02T02:31:50.580Z,13.48
2022-09-02T02:34:20.726Z,13.48
2022-09-02T02:36:50.295Z,13.25
2022-09-02T02:39:26.129Z,13.14
2022-09-02T02:41:53.431Z,12.97
2022-09-02T02:44:23.153Z,12.92
2022-09-02T02:46:50.759Z,12.88
2022-09-02T02:49:17.951Z,12.86
2022-09-02T02:51:44.948Z,12.73
2022-09-02T02:54:17.498Z,12.64
2022-09-02T02:56:47.630Z,12.47
2022-09-02T02:59:16.799Z,12.52
2022-09-02T03:01:43.870Z,12.43
2022-09-02T03:04:10.845Z,12.45
2022-09-02T03:06:38.390Z,12.44
2022-09-02T03:09:08.053Z,12.33
2022-09-02T03:11:40.049Z,12.37
2022-09-02T03:14:09.558Z,12.25
2022-09-02T03:16:45.838Z,12.29
2022-09-02T03:19:17.520Z,12.16
2022-09-02T03:21:53.630Z,12.25
2022-09-02T03:24:29.955Z,12.29
2022-09-02T03:27:02.764Z,12.16
2022-09-02T03:29:29.959Z,12.16
2022-09-02T03:31:58.335Z,12.16
2022-09-02T03:34:27.123Z,12.37
2022-09-02T03:36:59.502Z,12.17
2022-09-02T03:39:32.876Z,12.13
2022-09-02T03:42:03.074Z,12.07
2022-09-02T03:44:43.602Z,12.04
2022-09-02T03:47:10.627Z,11.99
2022-09-02T03:49:39.241Z,11.97
2022-09-02T03:52:12.385Z,11.94
2022-09-02T03:54:44.726Z,11.98
2022-09-02T03:57:14.970Z,11.86
2022-09-02T03:59:43.815Z,11.86
2022-09-02T04:02:11.960Z,11.76
2022-09-02T04:04:41.634Z,11.79
2022-09-02T04:07:11.491Z,11.66
2022-09-02T04:09:46.734Z,11.59
2022-09-02T04:12:17.139Z,11.62
2022-09-02T04:14:48.734Z,11.62
2022-09-02T04:17:20.446Z,11.59
2022-09-02T04:19:52.995Z,11.62
2022-09-02T04:22:22.929Z,11.57
2022-09-02T04:24:55.174Z,11.56
2022-09-02T04:27:34.436Z,11.58
2022-09-02T04:30:04.825Z,11.65
2022-09-02T04:32:39.862Z,11.63
2022-09-02T04:35:10.286Z,11.79
2022-09-02T04:40:22.331Z,11.99
2022-09-02T04:42:55.418Z,12.04
2022-09-02T04:45:27.862Z,12.10
2022-09-02T04:48:03.790Z,12.13
2022-09-02T04:50:34.107Z,12.05
2022-09-02T04:53:02.369Z,12.07
2022-09-02T04:55:32.231Z,12.15
2022-09-02T04:58:02.669Z,12.15
2022-09-02T05:00:32.305Z,12.24
2022-09-02T05:02:59.428Z,12.28
2022-09-02T05:05:31.732Z,12.34
2022-09-02T05:07:59.926Z,12.45
2022-09-02T05:10:29.223Z,12.50
2022-09-02T05:13:01.180Z,12.62
2022-09-02T05:15:32.103Z,12.65
2022-09-02T05:17:59.228Z,12.86
2022-09-02T05:20:35.345Z,12.82
2022-09-02T05:23:05.746Z,12.91
2022-09-02T05:25:35.782Z,13.05
2022-09-02T05:28:02.776Z,13.18
2022-09-02T05:30:33.059Z,13.33
2022-09-02T05:33:03.565Z,13.37
2022-09-02T05:35:35.207Z,13.56
2022-09-02T05:38:11.075Z,13.61
2022-09-02T05:40:41.151Z,13.83
2022-09-02T05:43:14.298Z,13.93
2022-09-02T05:45:43.215Z,14.17
2022-09-02T05:48:29.435Z,14.35
2022-09-02T05:50:59.997Z,14.60
2022-09-02T05:53:33.554Z,14.86
2022-09-02T05:56:12.455Z,15.01
2022-09-02T05:58:42.100Z,15.22
2022-09-02T06:01:17.694Z,15.49
2022-09-02T06:03:49.184Z,15.73
2022-09-02T06:06:22.905Z,16.01
2022-09-02T06:08:52.372Z,16.11
2022-09-02T06:11:24.907Z,16.30
2022-09-02T06:13:55.811Z,16.46
2022-09-02T06:16:29.603Z,16.60
2022-09-02T06:18:58.053Z,16.92
2022-09-02T06:21:25.806Z,17.20
2022-09-02T06:23:56.275Z,17.38
2022-09-02T06:26:35.982Z,17.40
2022-09-02T06:29:11.521Z,17.53
2022-09-02T06:31:44.282Z,17.74
2022-09-02T06:34:15.944Z,17.65
2022-09-02T06:36:48.920Z,17.69
2022-09-02T06:39:17.908Z,17.83
2022-09-02T06:41:51.331Z,17.96
2022-09-02T06:44:27.482Z,18.14
2022-09-02T06:46:57.646Z,18.20
2022-09-02T06:49:28.929Z,18.08
2022-09-02T06:52:05.410Z,18.17
2022-09-02T06:54:38.531Z,18.36
2022-09-02T06:57:14.192Z,18.47
2022-09-02T06:59:41.182Z,18.41
2022-09-02T07:02:09.720Z,18.62
2022-09-02T07:04:57.645Z,18.45
2022-09-02T07:07:33.341Z,18.18
2022-09-02T07:10:07.782Z,18.34
2022-09-02T07:12:39.187Z,18.19
2022-09-02T07:15:14.460Z,18.32
2022-09-02T07:17:45.835Z,18.36
2022-09-02T07:20:26.492Z,18.58
2022-09-02T07:23:00.713Z,18.62
2022-09-02T07:25:41.870Z,18.82
2022-09-02T07:28:16.191Z,18.98
2022-09-02T07:30:48.532Z,19.00
2022-09-02T07:33:18.545Z,19.12
2022-09-02T07:35:54.251Z,19.30
2022-09-02T07:38:25.546Z,19.21
2022-09-02T07:40:57.093Z,19.25
2022-09-02T07:43:28.280Z,19.27
2022-09-02T07:45:58.333Z,19.44
2022-09-02T07:48:25.778Z,19.30
2022-09-02T07:50:59.247Z,19.26
2022-09-02T07:53:30.643Z,19.15
2022-09-02T07:56:09.913Z,19.12
2022-09-02T07:58:37.231Z,19.04
2022-09-02T08:01:08.333Z,19.05
2022-09-02T08:03:43.210Z,19.07
2022-09-02T08:06:14.244Z,19.29
2022-09-02T08:08:42.236Z,19.46
2022-09-02T08:11:20.387Z,19.58
2022-09-02T08:13:54.000Z,19.57
2022-09-02T08:16:21.019Z,19.82
2022-09-02T08:18:51.973Z,19.92
2022-09-02T08:21:21.873Z,19.97
2022-09-02T08:23:59.059Z,20.00
2022-09-02T08:26:28.990Z,19.93
2022-09-02T08:28:56.338Z,19.87
2022-09-02T08:31:26.354Z,19.87
2022-09-02T08:33:56.445Z,19.90
2022-09-02T08:36:32.803Z,20.03
2022-09-02T08:39:01.817Z,20.04
2022-09-02T08:41:39.363Z,20.10
2022-09-02T08:44:07.080Z,20.21
2022-09-02T08:46:41.692Z,20.29
2022-09-02T08:49:39.597Z,20.25
2022-09-02T08:52:17.174Z,20.23
2022-09-02T08:54:55.760Z,20.02
2022-09-02T08:57:27.270Z,20.47
2022-09-02T08:59:56.393Z,20.48
2022-09-02T09:02:47.411Z,20.49
2022-09-02T09:05:29.822Z,20.53
2022-09-02T09:08:10.960Z,20.65
2022-09-02T09:10:44.004Z,20.68
2022-09-02T09:13:22.083Z,20.59
2022-09-02T09:15:52.026Z,20.51
2022-09-02T09:18:31.145Z,20.43
2022-09-02T09:21:01.077Z,20.63
2022-09-02T09:23:34.669Z,20.82
2022-09-02T09:26:16.802Z,20.87
2022-09-02T09:28:44.882Z,20.78
2022-09-02T09:31:29.969Z,20.72
2022-09-02T09:33:59.862Z,21.08
2022-09-02T09:36:42.413Z,21.07
2022-09-02T09:39:27.376Z,21.28
2022-09-02T09:41:59.827Z,21.30
2022-09-02T09:44:38.883Z,21.39
2022-09-02T09:47:13.652Z,21.44
2022-09-02T09:49:44.300Z,21.37
2022-09-02T09:52:14.466Z,21.23
2022-09-02T09:54:44.798Z,21.35
2022-09-02T09:57:23.284Z,21.46
2022-09-02T09:59:58.776Z,21.54
2022-09-02T10:02:26.911Z,21.40
2022-09-02T10:04:55.282Z,21.41
2022-09-02T10:07:38.820Z,21.37
2022-09-02T10:10:24.351Z,21.45
2022-09-02T10:12:52.337Z,21.44
2022-09-02T10:15:44.350Z,21.61
2022-09-02T10:18:31.938Z,21.69
2022-09-02T10:21:15.358Z,21.74
2022-09-02T10:23:52.425Z,21.92
2022-09-02T10:26:37.972Z,21.97
2022-09-02T10:29:25.983Z,21.91
2022-09-02T10:32:05.134Z,21.80
2022-09-02T10:34:37.976Z,22.01
2022-09-02T10:37:11.045Z,22.11
2022-09-02T10:39:37.935Z,22.23
2022-09-02T10:42:13.307Z,22.33
2022-09-02T10:44:48.556Z,22.33
2022-09-02T10:47:30.215Z,22.11
2022-09-02T10:50:13.645Z,22.18
2022-09-02T10:52:47.708Z,22.10
2022-09-02T10:55:38.773Z,22.52
2022-09-02T10:58:15.681Z,22.42
2022-09-02T11:00:47.403Z,22.56
2022-09-02T11:03:26.037Z,22.27
2022-09-02T11:05:58.376Z,22.56
2022-09-02T11:08:35.317Z,22.46
2022-09-02T11:11:13.238Z,22.19
2022-09-02T11:14:01.024Z,22.43
2022-09-02T11:16:48.408Z,22.37
2022-09-02T11:19:22.669Z,22.67
2022-09-02T11:22:09.921Z,22.66
2022-09-02T11:24:43.326Z,22.93
2022-09-02T11:27:32.249Z,22.95
2022-09-02T11:30:09.147Z,23.03
2022-09-02T11:32:59.687Z,23.41
2022-09-02T11:35:29.544Z,23.44
2022-09-02T11:38:07.858Z,23.66
2022-09-02T11:46:36.956Z,23.48
2022-09-02T11:49:14.235Z,23.19
2022-09-02T11:51:59.005Z,23.51
2022-09-02T11:54:35.414Z,23.64
2022-09-02T11:57:06.612Z,23.66
2022-09-02T11:59:58.952Z,23.33
2022-09-02T12:02:38.174Z,23.90
2022-09-02T12:05:26.158Z,24.57
2022-09-02T12:08:02.631Z,24.68
2022-09-02T12:10:48.610Z,24.97
2022-09-02T12:14:04.711Z,24.81
2022-09-02T12:16:37.532Z,24.46
2022-09-02T12:19:15.314Z,24.58
2022-09-02T12:22:06.676Z,24.62
2022-09-02T12:24:48.530Z,24.64
2022-09-02T12:27:22.657Z,24.70
2022-09-02T12:30:02.386Z,24.48
2022-09-02T12:32:49.716Z,24.57
2022-09-02T12:35:35.189Z,24.64
2022-09-02T12:38:10.062Z,24.90
2022-09-02T12:41:13.522Z,25.05
2022-09-02T12:43:52.822Z,24.73
2022-09-02T12:46:29.049Z,24.23
2022-09-02T12:49:25.599Z,24.21
2022-09-02T12:51:57.365Z,24.17
2022-09-02T12:54:41.923Z,23.77
2022-09-02T12:57:16.684Z,24.12
2022-09-02T12:59:50.931Z,23.83
2022-09-02T13:02:29.568Z,23.91
2022-09-02T13:05:03.704Z,24.04
2022-09-02T13:07:39.273Z,24.01
2022-09-02T13:10:12.982Z,24.07
2022-09-02T13:12:57.830Z,24.05
2022-09-02T13:18:23.771Z,23.84
2022-09-02T13:21:09.640Z,23.77
2022-09-02T13:23:41.492Z,23.98
2022-09-02T13:26:23.053Z,23.81
2022-09-02T13:29:26.516Z,23.59
2022-09-02T13:32:22.453Z,23.67
2022-09-02T13:35:02.053Z,24.44
2022-09-02T13:37:36.962Z,24.98
2022-09-02T13:40:22.092Z,25.19
2022-09-02T13:42:57.119Z,24.62
2022-09-02T13:45:28.253Z,24.10
2022-09-02T13:48:02.156Z,24.11
2022-09-02T13:50:35.570Z,23.69
2022-09-02T13:53:45.414Z,23.84
2022-09-02T13:55:58.233Z,24.16
2022-09-02T13:58:45.509Z,24.48
2022-09-02T14:01:26.794Z,24.67
2022-09-02T14:03:58.730Z,24.62
2022-09-02T14:06:38.594Z,24.62
2022-09-02T14:09:18.204Z,24.43
2022-09-02T14:11:53.301Z,24.53
2022-09-02T14:14:24.458Z,24.69
2022-09-02T14:17:14.763Z,24.43
2022-09-02T14:19:48.334Z,25.09
2022-09-02T14:22:35.123Z,25.29
2022-09-02T14:25:23.127Z,24.69
2022-09-02T14:27:59.359Z,24.48
2022-09-02T14:30:29.621Z,24.37
2022-09-02T14:33:15.241Z,23.91
2022-09-02T14:35:42.299Z,23.68
2022-09-02T14:38:22.721Z,23.87
2022-09-02T14:41:04.547Z,23.76
2022-09-02T14:43:49.133Z,23.82
2022-09-02T14:46:31.354Z,24.06
2022-09-02T14:49:18.213Z,24.19
2022-09-02T14:51:53.355Z,23.43
2022-09-02T14:54:42.743Z,23.37
2022-09-02T14:57:35.121Z,23.10
2022-09-02T15:00:08.722Z,22.59
2022-09-02T15:02:41.675Z,22.46
2022-09-02T15:05:14.692Z,22.24
2022-09-02T15:07:46.765Z,22.11
2022-09-02T15:10:17.132Z,22.17
2022-09-02T15:12:54.789Z,22.05
2022-09-02T15:15:28.800Z,21.75
2022-09-02T15:18:01.691Z,21.65
2022-09-02T15:20:31.253Z,21.78
2022-09-02T15:23:10.384Z,21.84
2022-09-02T15:25:50.012Z,21.57
2022-09-02T15:28:28.255Z,21.34
2022-09-02T15:30:59.439Z,21.22
2022-09-02T15:33:27.553Z,21.14
2022-09-02T15:36:00.432Z,20.97
2022-09-02T15:38:30.124Z,20.80
2022-09-02T15:41:18.428Z,20.97
2022-09-02T15:43:47.793Z,20.94
2022-09-02T15:46:34.926Z,20.65
2022-09-02T15:49:14.781Z,20.59
2022-09-02T15:51:44.945Z,20.36
2022-09-02T15:56:45.055Z,20.78
2022-09-02T15:59:17.189Z,20.67
2022-09-02T16:01:48.581Z,21.63
2022-09-02T16:04:18.706Z,22.38
2022-09-02T16:06:52.441Z,21.92
2022-09-02T16:09:19.922Z,21.89
2022-09-02T16:11:48.489Z,21.10
2022-09-02T16:14:15.466Z,21.07
2022-09-02T16:19:44.354Z,22.51
2022-09-02T16:22:13.819Z,23.83
2022-09-02T16:24:47.416Z,24.90
2022-09-02T16:27:17.087Z,24.47
2022-09-02T16:29:44.290Z,24.17
2022-09-02T16:32:27.320Z,24.37
2022-09-02T16:35:03.752Z,23.40
2022-09-02T16:37:35.201Z,22.07
2022-09-02T16:40:03.532Z,21.72
2022-09-02T16:42:40.802Z,20.99
2022-09-02T16:45:07.985Z,20.80
2022-09-02T16:47:43.657Z,20.30
2022-09-02T16:50:15.327Z,20.26
2022-09-02T16:52:42.226Z,19.80
2022-09-02T16:55:11.815Z,19.89
2022-09-02T16:57:44.449Z,19.89
2022-09-02T17:00:15.447Z,19.61
2022-09-02T17:02:42.866Z,19.44
2022-09-02T17:05:10.990Z,19.45
2022-09-02T17:07:48.200Z,19.23
2022-09-02T17:10:27.438Z,19.00
2022-09-02T17:12:57.565Z,18.86
2022-09-02T17:15:26.240Z,18.91
2022-09-02T17:17:53.052Z,18.82
2022-09-02T17:20:20.307Z,18.75
2022-09-02T17:22:56.681Z,18.73
2022-09-02T17:25:23.584Z,18.56
2022-09-02T17:27:51.420Z,18.47
2022-09-02T17:30:24.354Z,18.40
2022-09-02T17:32:55.749Z,18.27
2022-09-02T17:35:24.814Z,18.16
2022-09-02T17:37:54.578Z,18.03
2022-09-02T17:40:40.908Z,17.87
2022-09-02T17:43:11.333Z,17.76
2022-09-02T17:45:42.631Z,17.69
2022-09-02T17:48:35.707Z,17.52
2022-09-02T17:51:10.919Z,17.46
2022-09-02T17:53:47.367Z,17.32
2022-09-02T17:56:36.967Z,17.08
2022-09-02T17:59:22.264Z,17.26
2022-09-02T18:02:13.222Z,17.03
2022-09-02T18:04:44.399Z,16.97
2022-09-02T18:07:31.694Z,16.92
2022-09-02T18:10:01.316Z,16.89
2022-09-02T18:12:28.780Z,16.82
2022-09-02T18:15:28.152Z,16.71
2022-09-02T18:18:31.314Z,16.68
2022-09-02T18:21:03.807Z,16.53
2022-09-02T18:23:53.145Z,16.39
2022-09-02T18:26:51.948Z,16.41
2022-09-02T18:29:42.360Z,16.27
2022-09-02T18:32:42.985Z,16.31
2022-09-02T18:35:18.463Z,16.14
2022-09-02T18:38:07.334Z,16.11
2022-09-02T18:40:34.537Z,16.07
2022-09-02T18:43:11.090Z,16.01
2022-09-02T18:46:01.569Z,16.03
2022-09-02T18:48:28.472Z,16.05
2022-09-02T18:51:16.030Z,16.00
2022-09-02T18:53:52.711Z,15.92
2022-09-02T18:56:23.015Z,15.93
2022-09-02T18:58:59.218Z,15.92
2022-09-02T19:01:27.580Z,15.96
2022-09-02T19:03:59.617Z,15.97
2022-09-02T19:06:35.356Z,15.94
2022-09-02T19:09:08.033Z,15.92
2022-09-02T19:11:44.606Z,15.93
2022-09-02T19:14:28.210Z,15.75
2022-09-02T19:16:56.058Z,15.66
2022-09-02T19:19:22.907Z,15.60
2022-09-02T19:21:56.567Z,15.54
2022-09-02T19:24:42.938Z,15.52
2022-09-02T19:27:12.781Z,15.47
2022-09-02T19:29:46.903Z,15.41
2022-09-02T19:32:25.377Z,15.37
2022-09-02T19:34:56.178Z,15.34
2022-09-02T19:37:25.684Z,15.30
2022-09-02T19:39:57.648Z,15.24
2022-09-02T19:42:39.006Z,15.15
2022-09-02T19:45:10.970Z,15.10
2022-09-02T19:50:41.022Z,15.10
2022-09-02T19:53:20.532Z,15.01
2022-09-02T19:55:52.392Z,15.01
2022-09-02T19:58:22.986Z,15.00
2022-09-02T20:00:49.991Z,15.00
2022-09-02T20:03:21.012Z,14.90
2022-09-02T20:05:52.788Z,14.75
2022-09-02T20:08:31.041Z,14.74
2022-09-02T20:11:05.243Z,14.72
2022-09-02T20:13:40.712Z,14.72
2022-09-02T20:16:17.369Z,14.61
2022-09-02T20:18:48.957Z,14.47
2022-09-02T20:21:21.576Z,14.45
2022-09-02T20:23:54.807Z,14.43
2022-09-02T20:26:38.956Z,14.39
2022-09-02T20:29:31.025Z,14.37
2022-09-02T20:32:01.021Z,14.34
2022-09-02T20:34:43.308Z,14.40
2022-09-02T20:37:22.248Z,14.27
2022-09-02T20:40:05.293Z,14.22
2022-09-02T20:42:58.329Z,14.16
2022-09-02T20:45:35.005Z,14.17
2022-09-02T20:48:27.699Z,14.15
2022-09-02T20:51:08.382Z,14.16
2022-09-02T20:53:35.324Z,14.11
2022-09-02T20:56:06.157Z,14.13
2022-09-02T20:58:56.939Z,14.10
2022-09-02T21:01:28.234Z,14.07
2022-09-02T21:04:13.924Z,14.03
2022-09-02T21:06:44.504Z,13.97
2022-09-02T21:09:20.913Z,13.98
2022-09-02T21:12:05.131Z,13.96
2022-09-02T21:14:40.047Z,13.93
2022-09-02T21:17:10.741Z,13.93
2022-09-02T21:19:44.699Z,13.89
2022-09-02T21:22:25.864Z,13.81
2022-09-02T21:25:00.958Z,13.75
2022-09-02T21:27:34.432Z,13.70
2022-09-02T21:30:11.236Z,13.65
2022-09-02T21:32:45.119Z,13.62
2022-09-02T21:38:12.306Z,13.55
2022-09-02T21:40:45.516Z,13.57
2022-09-02T21:43:31.123Z,13.54
2022-09-02T21:46:09.740Z,13.48
2022-09-02T21:48:48.116Z,13.42
2022-09-02T21:51:23.225Z,13.40
2022-09-02T21:54:08.514Z,13.35
2022-09-02T21:56:56.731Z,13.26
2022-09-02T21:59:29.496Z,13.21
2022-09-02T22:02:03.589Z,13.20
2022-09-02T22:04:50.121Z,13.19
2022-09-02T22:07:26.855Z,13.13
2022-09-02T22:10:13.027Z,13.04
2022-09-02T22:12:53.764Z,12.99
2022-09-02T22:15:21.141Z,12.92
2022-09-02T22:17:54.594Z,12.89
2022-09-02T22:20:29.530Z,12.85
2022-09-02T22:23:09.382Z,12.85
2022-09-02T22:25:39.750Z,12.74
2022-09-02T22:28:14.310Z,12.73
2022-09-02T22:30:47.641Z,12.69
2022-09-02T22:33:16.417Z,12.63
2022-09-02T22:36:03.955Z,12.61
2022-09-02T22:38:49.734Z,12.62
2022-09-02T22:41:20.627Z,12.60
2022-09-02T22:44:02.944Z,12.60
2022-09-02T22:46:50.707Z,12.56
2022-09-02T22:49:48.886Z,12.51
2022-09-02T22:52:54.737Z,12.48
2022-09-02T22:55:38.330Z,12.44
2022-09-02T22:58:16.238Z,12.42
2022-09-02T23:00:48.912Z,12.54
2022-09-02T23:03:22.056Z,12.43
2022-09-02T23:05:55.926Z,12.35
2022-09-02T23:08:25.468Z,12.31
2022-09-02T23:10:58.761Z,12.31
2022-09-02T23:13:37.952Z,12.28
2022-09-02T23:16:14.656Z,12.26
2022-09-02T23:19:06.455Z,12.21
2022-09-02T23:21:37.338Z,12.21
2022-09-02T23:24:19.992Z,12.18
2022-09-02T23:26:53.290Z,12.11
2022-09-02T23:29:28.945Z,12.12
2022-09-02T23:32:21.015Z,12.06
2022-09-02T23:34:58.157Z,12.11
2022-09-02T23:37:33.140Z,12.13
2022-09-02T23:40:03.924Z,12.04
2022-09-02T23:42:33.616Z,12.01
2022-09-02T23:45:07.281Z,12.05
2022-09-02T23:47:46.501Z,11.95
2022-09-02T23:50:21.221Z,11.92
2022-09-02T23:52:56.687Z,11.88
2022-09-02T23:55:51.814Z,11.88
2022-09-02T23:58:23.026Z,11.84
